sensor_id;sensor_type;location;lat;lon;timestamp;P1;durP1;ratioP1;P2;durP2;ratioP2
35084;SDS011;21267;51.032;6.998;2023-02-28T00:00:42;4.97;;;1.98;;
35084;SDS011;21267;51.032;6.998;2023-02-28T00:03:12;3.97;;;2.40;;
35084;SDS011;21267;51.032;6.998;2023-02-28T00:05:39;3.70;;;2.20;;
35084;SDS011;21267;51.032;6.998;2023-02-28T00:08:11;3.80;;;1.80;;
35084;SDS011;21267;51.032;6.998;2023-02-28T00:10:39;3.60;;;2.20;;
35084;SDS011;21267;51.032;6.998;2023-02-28T00:13:11;5.35;;;2.25;;
35084;SDS011;21267;51.032;6.998;2023-02-28T00:15:39;2.45;;;1.50;;
35084;SDS011;21267;51.032;6.998;2023-02-28T00:18:06;4.53;;;2.23;;
35084;SDS011;21267;51.032;6.998;2023-02-28T00:20:38;4.72;;;2.20;;
35084;SDS011;21267;51.032;6.998;2023-02-28T00:23:05;4.07;;;1.73;;
35084;SDS011;21267;51.032;6.998;2023-02-28T00:25:32;4.47;;;2.37;;
35084;SDS011;21267;51.032;6.998;2023-02-28T00:28:03;4.00;;;1.98;;
35084;SDS011;21267;51.032;6.998;2023-02-28T00:30:30;3.70;;;2.20;;
35084;SDS011;21267;51.032;6.998;2023-02-28T00:32:57;5.10;;;2.30;;
35084;SDS011;21267;51.032;6.998;2023-02-28T00:35:26;2.47;;;1.75;;
35084;SDS011;21267;51.032;6.998;2023-02-28T00:38:01;4.65;;;2.20;;
35084;SDS011;21267;51.032;6.998;2023-02-28T00:40:29;3.17;;;2.00;;
35084;SDS011;21267;51.032;6.998;2023-02-28T00:43:11;4.85;;;2.47;;
35084;SDS011;21267;51.032;6.998;2023-02-28T00:46:08;6.97;;;2.53;;
35084;SDS011;21267;51.032;6.998;2023-02-28T00:48:38;6.47;;;2.35;;
35084;SDS011;21267;51.032;6.998;2023-02-28T00:51:14;5.82;;;2.13;;
35084;SDS011;21267;51.032;6.998;2023-02-28T00:53:41;5.77;;;2.00;;
35084;SDS011;21267;51.032;6.998;2023-02-28T00:56:11;3.17;;;2.22;;
35084;SDS011;21267;51.032;6.998;2023-02-28T01:01:43;4.30;;;2.53;;
35084;SDS011;21267;51.032;6.998;2023-02-28T01:05:43;4.70;;;2.35;;
35084;SDS011;21267;51.032;6.998;2023-02-28T01:09:13;4.35;;;1.95;;
35084;SDS011;21267;51.032;6.998;2023-02-28T01:12:14;3.58;;;2.15;;
35084;SDS011;21267;51.032;6.998;2023-02-28T01:14:56;2.50;;;1.98;;
35084;SDS011;21267;51.032;6.998;2023-02-28T01:17:31;4.18;;;2.10;;
35084;SDS011;21267;51.032;6.998;2023-02-28T01:19:58;3.40;;;1.98;;
35084;SDS011;21267;51.032;6.998;2023-02-28T01:22:37;4.68;;;2.03;;
35084;SDS011;21267;51.032;6.998;2023-02-28T01:25:17;3.20;;;2.20;;
35084;SDS011;21267;51.032;6.998;2023-02-28T01:27:53;5.28;;;2.38;;
35084;SDS011;21267;51.032;6.998;2023-02-28T01:30:28;4.45;;;2.00;;
35084;SDS011;21267;51.032;6.998;2023-02-28T01:33:01;7.32;;;4.07;;
35084;SDS011;21267;51.032;6.998;2023-02-28T01:35:42;3.47;;;2.50;;
35084;SDS011;21267;51.032;6.998;2023-02-28T01:38:19;3.00;;;1.98;;
35084;SDS011;21267;51.032;6.998;2023-02-28T01:41:04;3.35;;;1.88;;
35084;SDS011;21267;51.032;6.998;2023-02-28T01:46:15;3.67;;;2.33;;
35084;SDS011;21267;51.032;6.998;2023-02-28T01:48:51;5.20;;;2.50;;
35084;SDS011;21267;51.032;6.998;2023-02-28T01:52:00;3.00;;;2.10;;
35084;SDS011;21267;51.032;6.998;2023-02-28T01:55:02;4.55;;;2.17;;
35084;SDS011;21267;51.032;6.998;2023-02-28T01:57:50;4.80;;;2.42;;
35084;SDS011;21267;51.032;6.998;2023-02-28T02:04:17;2.38;;;2.03;;
35084;SDS011;21267;51.032;6.998;2023-02-28T02:07:19;3.13;;;1.98;;
35084;SDS011;21267;51.032;6.998;2023-02-28T02:10:10;3.63;;;2.00;;
35084;SDS011;21267;51.032;6.998;2023-02-28T02:27:13;4.57;;;2.05;;
35084;SDS011;21267;51.032;6.998;2023-02-28T02:40:56;2.70;;;1.83;;
35084;SDS011;21267;51.032;6.998;2023-02-28T02:44:04;4.65;;;2.47;;
35084;SDS011;21267;51.032;6.998;2023-02-28T02:46:42;6.80;;;3.08;;
35084;SDS011;21267;51.032;6.998;2023-02-28T02:49:26;7.13;;;1.92;;
35084;SDS011;21267;51.032;6.998;2023-02-28T02:52:01;3.28;;;2.03;;
35084;SDS011;21267;51.032;6.998;2023-02-28T02:54:57;3.00;;;1.95;;
35084;SDS011;21267;51.032;6.998;2023-02-28T02:57:33;4.55;;;1.90;;
35084;SDS011;21267;51.032;6.998;2023-02-28T03:00:19;3.28;;;2.10;;
35084;SDS011;21267;51.032;6.998;2023-02-28T03:03:13;3.42;;;2.33;;
35084;SDS011;21267;51.032;6.998;2023-02-28T03:06:08;3.95;;;2.20;;
35084;SDS011;21267;51.032;6.998;2023-02-28T03:08:57;3.22;;;2.20;;
35084;SDS011;21267;51.032;6.998;2023-02-28T03:12:09;3.28;;;2.17;;
35084;SDS011;21267;51.032;6.998;2023-02-28T03:15:27;5.28;;;2.28;;
35084;SDS011;21267;51.032;6.998;2023-02-28T03:24:26;4.25;;;2.55;;
35084;SDS011;21267;51.032;6.998;2023-02-28T03:27:09;2.60;;;2.20;;
35084;SDS011;21267;51.032;6.998;2023-02-28T03:30:11;3.05;;;2.30;;
35084;SDS011;21267;51.032;6.998;2023-02-28T03:35:55;4.55;;;2.78;;
35084;SDS011;21267;51.032;6.998;2023-02-28T03:41:17;4.47;;;2.65;;
35084;SDS011;21267;51.032;6.998;2023-02-28T03:46:25;3.45;;;2.08;;
35084;SDS011;21267;51.032;6.998;2023-02-28T03:49:05;3.67;;;2.15;;
35084;SDS011;21267;51.032;6.998;2023-02-28T03:51:37;6.28;;;2.25;;
35084;SDS011;21267;51.032;6.998;2023-02-28T03:54:12;4.38;;;2.58;;
35084;SDS011;21267;51.032;6.998;2023-02-28T03:56:57;4.03;;;2.70;;
35084;SDS011;21267;51.032;6.998;2023-02-28T03:59:44;5.45;;;3.10;;
35084;SDS011;21267;51.032;6.998;2023-02-28T04:02:37;3.63;;;2.80;;
35084;SDS011;21267;51.032;6.998;2023-02-28T04:05:03;3.43;;;1.77;;
35084;SDS011;21267;51.032;6.998;2023-02-28T04:07:35;4.10;;;2.67;;
35084;SDS011;21267;51.032;6.998;2023-02-28T04:10:02;3.80;;;2.20;;
35084;SDS011;21267;51.032;6.998;2023-02-28T04:12:31;6.22;;;2.70;;
35084;SDS011;21267;51.032;6.998;2023-02-28T04:15:05;7.27;;;2.60;;
35084;SDS011;21267;51.032;6.998;2023-02-28T04:17:36;4.13;;;2.40;;
35084;SDS011;21267;51.032;6.998;2023-02-28T04:20:18;5.00;;;2.72;;
35084;SDS011;21267;51.032;6.998;2023-02-28T04:22:54;4.10;;;2.40;;
35084;SDS011;21267;51.032;6.998;2023-02-28T04:25:27;3.97;;;2.30;;
35084;SDS011;21267;51.032;6.998;2023-02-28T04:28:20;4.63;;;2.88;;
35084;SDS011;21267;51.032;6.998;2023-02-28T04:30:59;5.45;;;2.88;;
35084;SDS011;21267;51.032;6.998;2023-02-28T04:33:31;5.45;;;2.58;;
35084;SDS011;21267;51.032;6.998;2023-02-28T04:36:08;4.78;;;2.85;;
35084;SDS011;21267;51.032;6.998;2023-02-28T04:38:40;3.67;;;2.35;;
35084;SDS011;21267;51.032;6.998;2023-02-28T04:41:28;3.28;;;1.98;;
35084;SDS011;21267;51.032;6.998;2023-02-28T04:44:09;2.75;;;2.45;;
35084;SDS011;21267;51.032;6.998;2023-02-28T04:46:53;2.30;;;2.05;;
35084;SDS011;21267;51.032;6.998;2023-02-28T04:49:20;3.88;;;2.45;;
35084;SDS011;21267;51.032;6.998;2023-02-28T04:51:52;3.88;;;2.00;;
35084;SDS011;21267;51.032;6.998;2023-02-28T04:54:34;3.08;;;1.77;;
35084;SDS011;21267;51.032;6.998;2023-02-28T04:57:22;5.55;;;2.60;;
35084;SDS011;21267;51.032;6.998;2023-02-28T05:00:09;5.20;;;2.20;;
35084;SDS011;21267;51.032;6.998;2023-02-28T05:02:56;2.28;;;1.75;;
35084;SDS011;21267;51.032;6.998;2023-02-28T05:05:53;3.03;;;1.40;;
35084;SDS011;21267;51.032;6.998;2023-02-28T05:08:22;3.15;;;2.20;;
35084;SDS011;21267;51.032;6.998;2023-02-28T05:10:55;2.40;;;1.75;;
35084;SDS011;21267;51.032;6.998;2023-02-28T05:13:31;4.30;;;2.50;;
35084;SDS011;21267;51.032;6.998;2023-02-28T05:16:44;4.22;;;2.45;;
35084;SDS011;21267;51.032;6.998;2023-02-28T05:19:29;2.78;;;1.88;;
35084;SDS011;21267;51.032;6.998;2023-02-28T05:22:12;3.15;;;2.00;;
35084;SDS011;21267;51.032;6.998;2023-02-28T05:25:20;2.47;;;1.92;;
35084;SDS011;21267;51.032;6.998;2023-02-28T05:27:51;4.28;;;1.88;;
35084;SDS011;21267;51.032;6.998;2023-02-28T05:30:41;7.15;;;2.35;;
35084;SDS011;21267;51.032;6.998;2023-02-28T05:33:17;3.47;;;1.48;;
35084;SDS011;21267;51.032;6.998;2023-02-28T05:35:45;4.20;;;2.15;;
35084;SDS011;21267;51.032;6.998;2023-02-28T05:41:13;3.25;;;2.20;;
35084;SDS011;21267;51.032;6.998;2023-02-28T05:44:02;3.80;;;2.33;;
35084;SDS011;21267;51.032;6.998;2023-02-28T05:46:30;4.18;;;3.28;;
35084;SDS011;21267;51.032;6.998;2023-02-28T05:48:59;4.28;;;2.22;;
35084;SDS011;21267;51.032;6.998;2023-02-28T05:53:54;7.15;;;3.17;;
35084;SDS011;21267;51.032;6.998;2023-02-28T05:56:21;2.50;;;2.00;;
35084;SDS011;21267;51.032;6.998;2023-02-28T05:58:48;3.92;;;2.15;;
35084;SDS011;21267;51.032;6.998;2023-02-28T06:01:32;1.48;;;1.23;;
35084;SDS011;21267;51.032;6.998;2023-02-28T06:04:02;4.65;;;2.13;;
35084;SDS011;21267;51.032;6.998;2023-02-28T06:06:47;3.95;;;2.20;;
35084;SDS011;21267;51.032;6.998;2023-02-28T06:09:17;3.90;;;2.15;;
35084;SDS011;21267;51.032;6.998;2023-02-28T06:11:45;4.15;;;2.45;;
35084;SDS011;21267;51.032;6.998;2023-02-28T06:14:17;2.43;;;1.70;;
35084;SDS011;21267;51.032;6.998;2023-02-28T06:16:45;2.45;;;2.17;;
35084;SDS011;21267;51.032;6.998;2023-02-28T06:19:13;3.67;;;2.03;;
35084;SDS011;21267;51.032;6.998;2023-02-28T06:21:40;3.57;;;2.57;;
35084;SDS011;21267;51.032;6.998;2023-02-28T06:24:07;4.10;;;2.25;;
35084;SDS011;21267;51.032;6.998;2023-02-28T06:26:37;3.67;;;2.35;;
35084;SDS011;21267;51.032;6.998;2023-02-28T06:29:04;3.63;;;2.43;;
35084;SDS011;21267;51.032;6.998;2023-02-28T06:31:30;4.82;;;2.90;;
35084;SDS011;21267;51.032;6.998;2023-02-28T06:33:58;3.42;;;2.28;;
35084;SDS011;21267;51.032;6.998;2023-02-28T06:36:25;4.05;;;2.25;;
35084;SDS011;21267;51.032;6.998;2023-02-28T06:38:51;4.65;;;2.33;;
35084;SDS011;21267;51.032;6.998;2023-02-28T06:41:23;5.38;;;2.45;;
35084;SDS011;21267;51.032;6.998;2023-02-28T06:43:58;5.45;;;2.90;;
35084;SDS011;21267;51.032;6.998;2023-02-28T06:46:24;7.60;;;4.00;;
35084;SDS011;21267;51.032;6.998;2023-02-28T06:48:53;4.60;;;2.55;;
35084;SDS011;21267;51.032;6.998;2023-02-28T06:51:20;2.87;;;2.40;;
35084;SDS011;21267;51.032;6.998;2023-02-28T06:53:48;7.35;;;2.67;;
35084;SDS011;21267;51.032;6.998;2023-02-28T06:56:16;3.85;;;2.30;;
35084;SDS011;21267;51.032;6.998;2023-02-28T06:58:47;6.47;;;2.55;;
35084;SDS011;21267;51.032;6.998;2023-02-28T07:01:16;3.50;;;2.33;;
35084;SDS011;21267;51.032;6.998;2023-02-28T07:03:46;4.45;;;2.72;;
35084;SDS011;21267;51.032;6.998;2023-02-28T07:06:13;3.60;;;2.05;;
35084;SDS011;21267;51.032;6.998;2023-02-28T07:08:39;2.75;;;1.85;;
35084;SDS011;21267;51.032;6.998;2023-02-28T07:11:07;3.70;;;1.95;;
35084;SDS011;21267;51.032;6.998;2023-02-28T07:13:34;5.77;;;2.37;;
35084;SDS011;21267;51.032;6.998;2023-02-28T07:16:02;3.45;;;2.15;;
35084;SDS011;21267;51.032;6.998;2023-02-28T07:18:31;3.65;;;1.80;;
35084;SDS011;21267;51.032;6.998;2023-02-28T07:21:01;3.35;;;2.10;;
35084;SDS011;21267;51.032;6.998;2023-02-28T07:23:28;4.05;;;1.88;;
35084;SDS011;21267;51.032;6.998;2023-02-28T07:25:55;3.17;;;2.08;;
35084;SDS011;21267;51.032;6.998;2023-02-28T07:28:23;6.05;;;1.88;;
35084;SDS011;21267;51.032;6.998;2023-02-28T07:33:39;2.78;;;1.80;;
35084;SDS011;21267;51.032;6.998;2023-02-28T07:36:08;1.67;;;1.50;;
35084;SDS011;21267;51.032;6.998;2023-02-28T07:38:42;4.15;;;1.65;;
35084;SDS011;21267;51.032;6.998;2023-02-28T07:41:13;2.88;;;1.90;;
35084;SDS011;21267;51.032;6.998;2023-02-28T07:46:14;2.38;;;1.50;;
35084;SDS011;21267;51.032;6.998;2023-02-28T07:48:43;3.03;;;2.08;;
35084;SDS011;21267;51.032;6.998;2023-02-28T07:51:10;1.85;;;1.48;;
35084;SDS011;21267;51.032;6.998;2023-02-28T07:53:37;1.17;;;1.00;;
35084;SDS011;21267;51.032;6.998;2023-02-28T07:56:04;7.97;;;2.88;;
35084;SDS011;21267;51.032;6.998;2023-02-28T07:58:31;3.97;;;1.67;;
35084;SDS011;21267;51.032;6.998;2023-02-28T08:01:04;4.78;;;1.55;;
35084;SDS011;21267;51.032;6.998;2023-02-28T08:03:36;5.78;;;1.48;;
35084;SDS011;21267;51.032;6.998;2023-02-28T08:06:03;2.42;;;1.65;;
35084;SDS011;21267;51.032;6.998;2023-02-28T08:08:31;3.22;;;1.38;;
35084;SDS011;21267;51.032;6.998;2023-02-28T08:11:01;2.75;;;0.73;;
35084;SDS011;21267;51.032;6.998;2023-02-28T08:13:29;2.13;;;1.50;;
35084;SDS011;21267;51.032;6.998;2023-02-28T08:16:00;1.65;;;1.38;;
35084;SDS011;21267;51.032;6.998;2023-02-28T08:18:28;3.00;;;1.35;;
35084;SDS011;21267;51.032;6.998;2023-02-28T08:20:54;2.05;;;1.17;;
35084;SDS011;21267;51.032;6.998;2023-02-28T08:23:21;2.30;;;1.73;;
35084;SDS011;21267;51.032;6.998;2023-02-28T08:25:54;2.90;;;1.52;;
35084;SDS011;21267;51.032;6.998;2023-02-28T08:28:22;2.05;;;1.27;;
35084;SDS011;21267;51.032;6.998;2023-02-28T08:30:52;2.60;;;1.45;;
35084;SDS011;21267;51.032;6.998;2023-02-28T08:33:20;1.30;;;1.05;;
35084;SDS011;21267;51.032;6.998;2023-02-28T08:35:47;1.05;;;0.95;;
35084;SDS011;21267;51.032;6.998;2023-02-28T08:38:15;2.97;;;1.92;;
35084;SDS011;21267;51.032;6.998;2023-02-28T08:40:43;1.30;;;0.90;;
35084;SDS011;21267;51.032;6.998;2023-02-28T08:43:09;2.53;;;1.08;;
35084;SDS011;21267;51.032;6.998;2023-02-28T08:45:37;2.63;;;1.23;;
35084;SDS011;21267;51.032;6.998;2023-02-28T08:48:04;2.30;;;1.63;;
35084;SDS011;21267;51.032;6.998;2023-02-28T08:50:30;6.07;;;1.38;;
35084;SDS011;21267;51.032;6.998;2023-02-28T08:52:57;2.28;;;1.33;;
35084;SDS011;21267;51.032;6.998;2023-02-28T08:55:24;3.37;;;1.20;;
35084;SDS011;21267;51.032;6.998;2023-02-28T08:57:51;1.63;;;1.33;;
35084;SDS011;21267;51.032;6.998;2023-02-28T09:00:18;1.42;;;0.88;;
35084;SDS011;21267;51.032;6.998;2023-02-28T09:02:45;1.67;;;1.05;;
35084;SDS011;21267;51.032;6.998;2023-02-28T09:05:12;2.33;;;0.75;;
35084;SDS011;21267;51.032;6.998;2023-02-28T09:07:39;1.45;;;1.20;;
35084;SDS011;21267;51.032;6.998;2023-02-28T09:10:05;2.10;;;1.50;;
35084;SDS011;21267;51.032;6.998;2023-02-28T09:12:34;4.47;;;1.60;;
35084;SDS011;21267;51.032;6.998;2023-02-28T09:15:01;1.27;;;1.17;;
35084;SDS011;21267;51.032;6.998;2023-02-28T09:17:29;2.92;;;1.25;;
35084;SDS011;21267;51.032;6.998;2023-02-28T09:19:56;1.97;;;1.07;;
35084;SDS011;21267;51.032;6.998;2023-02-28T09:22:23;3.37;;;2.27;;
35084;SDS011;21267;51.032;6.998;2023-02-28T09:24:50;2.53;;;1.60;;
35084;SDS011;21267;51.032;6.998;2023-02-28T09:27:17;4.35;;;1.95;;
35084;SDS011;21267;51.032;6.998;2023-02-28T09:29:44;1.90;;;1.60;;
35084;SDS011;21267;51.032;6.998;2023-02-28T09:32:11;12.10;;;8.32;;
35084;SDS011;21267;51.032;6.998;2023-02-28T09:34:37;5.45;;;3.03;;
35084;SDS011;21267;51.032;6.998;2023-02-28T09:37:04;3.22;;;1.73;;
35084;SDS011;21267;51.032;6.998;2023-02-28T09:39:31;1.65;;;1.55;;
35084;SDS011;21267;51.032;6.998;2023-02-28T09:41:58;2.03;;;1.15;;
35084;SDS011;21267;51.032;6.998;2023-02-28T09:49:51;2.28;;;1.52;;
35084;SDS011;21267;51.032;6.998;2023-02-28T09:52:20;1.70;;;1.57;;
35084;SDS011;21267;51.032;6.998;2023-02-28T09:54:53;3.45;;;1.48;;
35084;SDS011;21267;51.032;6.998;2023-02-28T09:57:37;1.58;;;1.42;;
35084;SDS011;21267;51.032;6.998;2023-02-28T10:00:19;2.05;;;1.52;;
35084;SDS011;21267;51.032;6.998;2023-02-28T10:05:21;5.55;;;2.08;;
35084;SDS011;21267;51.032;6.998;2023-02-28T10:10:55;4.78;;;1.60;;
35084;SDS011;21267;51.032;6.998;2023-02-28T10:16:35;2.15;;;1.17;;
35084;SDS011;21267;51.032;6.998;2023-02-28T10:19:13;3.60;;;1.15;;
35084;SDS011;21267;51.032;6.998;2023-02-28T10:21:47;3.17;;;1.13;;
35084;SDS011;21267;51.032;6.998;2023-02-28T10:29:49;1.52;;;0.85;;
35084;SDS011;21267;51.032;6.998;2023-02-28T10:32:20;1.33;;;0.85;;
35084;SDS011;21267;51.032;6.998;2023-02-28T10:35:16;1.40;;;1.03;;
35084;SDS011;21267;51.032;6.998;2023-02-28T10:37:45;4.13;;;2.38;;
35084;SDS011;21267;51.032;6.998;2023-02-28T10:43:22;1.55;;;1.13;;
35084;SDS011;21267;51.032;6.998;2023-02-28T10:45:59;3.17;;;1.20;;
35084;SDS011;21267;51.032;6.998;2023-02-28T10:48:31;3.17;;;1.45;;
35084;SDS011;21267;51.032;6.998;2023-02-28T10:51:18;2.08;;;1.23;;
35084;SDS011;21267;51.032;6.998;2023-02-28T10:53:52;1.52;;;1.00;;
35084;SDS011;21267;51.032;6.998;2023-02-28T10:56:27;1.73;;;1.00;;
35084;SDS011;21267;51.032;6.998;2023-02-28T11:03:57;3.10;;;1.52;;
35084;SDS011;21267;51.032;6.998;2023-02-28T11:06:31;1.48;;;1.38;;
35084;SDS011;21267;51.032;6.998;2023-02-28T11:09:02;2.20;;;1.90;;
35084;SDS011;21267;51.032;6.998;2023-02-28T11:11:41;2.42;;;1.30;;
35084;SDS011;21267;51.032;6.998;2023-02-28T11:16:48;1.55;;;1.42;;
35084;SDS011;21267;51.032;6.998;2023-02-28T11:19:22;3.10;;;1.30;;
35084;SDS011;21267;51.032;6.998;2023-02-28T11:21:56;5.75;;;2.83;;
35084;SDS011;21267;51.032;6.998;2023-02-28T11:24:29;2.08;;;1.40;;
35084;SDS011;21267;51.032;6.998;2023-02-28T11:27:01;3.47;;;1.65;;
35084;SDS011;21267;51.032;6.998;2023-02-28T11:29:29;4.35;;;1.55;;
35084;SDS011;21267;51.032;6.998;2023-02-28T11:34:35;1.95;;;1.70;;
35084;SDS011;21267;51.032;6.998;2023-02-28T11:37:04;2.17;;;1.45;;
35084;SDS011;21267;51.032;6.998;2023-02-28T11:39:36;4.40;;;1.92;;
35084;SDS011;21267;51.032;6.998;2023-02-28T11:53:40;3.13;;;1.40;;
35084;SDS011;21267;51.032;6.998;2023-02-28T12:06:25;10.65;;;2.95;;
35084;SDS011;21267;51.032;6.998;2023-02-28T12:09:03;3.42;;;1.98;;
35084;SDS011;21267;51.032;6.998;2023-02-28T12:14:41;3.88;;;1.98;;
35084;SDS011;21267;51.032;6.998;2023-02-28T12:28:15;2.95;;;2.30;;
35084;SDS011;21267;51.032;6.998;2023-02-28T12:30:50;3.63;;;2.38;;
35084;SDS011;21267;51.032;6.998;2023-02-28T12:33:24;3.28;;;2.10;;
35084;SDS011;21267;51.032;6.998;2023-02-28T12:36:03;5.75;;;1.58;;
35084;SDS011;21267;51.032;6.998;2023-02-28T12:38:39;2.22;;;1.33;;
35084;SDS011;21267;51.032;6.998;2023-02-28T12:43:47;3.40;;;1.80;;
35084;SDS011;21267;51.032;6.998;2023-02-28T12:46:33;3.50;;;2.13;;
35084;SDS011;21267;51.032;6.998;2023-02-28T12:49:08;3.38;;;2.00;;
35084;SDS011;21267;51.032;6.998;2023-02-28T12:51:39;3.72;;;2.10;;
35084;SDS011;21267;51.032;6.998;2023-02-28T12:56:54;2.10;;;1.90;;
35084;SDS011;21267;51.032;6.998;2023-02-28T12:59:25;2.50;;;1.90;;
35084;SDS011;21267;51.032;6.998;2023-02-28T13:08:03;2.80;;;2.08;;
35084;SDS011;21267;51.032;6.998;2023-02-28T13:10:50;9.05;;;3.65;;
35084;SDS011;21267;51.032;6.998;2023-02-28T13:13:22;4.07;;;2.90;;
35084;SDS011;21267;51.032;6.998;2023-02-28T13:16:04;7.25;;;3.90;;
35084;SDS011;21267;51.032;6.998;2023-02-28T13:18:35;2.30;;;1.80;;
35084;SDS011;21267;51.032;6.998;2023-02-28T13:21:06;2.63;;;1.92;;
35084;SDS011;21267;51.032;6.998;2023-02-28T13:26:13;3.50;;;2.58;;
35084;SDS011;21267;51.032;6.998;2023-02-28T13:31:15;3.20;;;2.33;;
35084;SDS011;21267;51.032;6.998;2023-02-28T13:41:43;2.28;;;1.77;;
35084;SDS011;21267;51.032;6.998;2023-02-28T14:00:07;3.72;;;2.20;;
35084;SDS011;21267;51.032;6.998;2023-02-28T14:05:27;3.20;;;2.30;;
35084;SDS011;21267;51.032;6.998;2023-02-28T14:07:57;4.40;;;2.47;;
35084;SDS011;21267;51.032;6.998;2023-02-28T14:10:28;2.50;;;2.30;;
35084;SDS011;21267;51.032;6.998;2023-02-28T14:18:00;3.03;;;2.20;;
35084;SDS011;21267;51.032;6.998;2023-02-28T14:20:37;3.05;;;2.35;;
35084;SDS011;21267;51.032;6.998;2023-02-28T14:26:03;3.13;;;2.70;;
35084;SDS011;21267;51.032;6.998;2023-02-28T14:31:29;2.58;;;2.35;;
35084;SDS011;21267;51.032;6.998;2023-02-28T14:36:52;4.03;;;2.40;;
35084;SDS011;21267;51.032;6.998;2023-02-28T14:39:24;2.70;;;2.17;;
35084;SDS011;21267;51.032;6.998;2023-02-28T14:41:53;4.00;;;2.63;;
35084;SDS011;21267;51.032;6.998;2023-02-28T14:44:21;3.38;;;2.05;;
35084;SDS011;21267;51.032;6.998;2023-02-28T14:46:56;5.68;;;2.83;;
35084;SDS011;21267;51.032;6.998;2023-02-28T14:49:26;4.97;;;2.40;;
35084;SDS011;21267;51.032;6.998;2023-02-28T14:52:11;3.20;;;2.75;;
35084;SDS011;21267;51.032;6.998;2023-02-28T14:54:51;5.35;;;3.00;;
35084;SDS011;21267;51.032;6.998;2023-02-28T14:57:21;4.65;;;3.40;;
35084;SDS011;21267;51.032;6.998;2023-02-28T14:59:57;8.90;;;3.13;;
35084;SDS011;21267;51.032;6.998;2023-02-28T15:02:37;6.97;;;4.10;;
35084;SDS011;21267;51.032;6.998;2023-02-28T15:07:38;2.55;;;2.30;;
35084;SDS011;21267;51.032;6.998;2023-02-28T15:12:51;2.97;;;2.03;;
35084;SDS011;21267;51.032;6.998;2023-02-28T15:15:22;1.65;;;1.55;;
35084;SDS011;21267;51.032;6.998;2023-02-28T15:18:15;2.22;;;1.85;;
35084;SDS011;21267;51.032;6.998;2023-02-28T15:21:02;2.70;;;2.20;;
35084;SDS011;21267;51.032;6.998;2023-02-28T15:23:32;3.88;;;2.03;;
35084;SDS011;21267;51.032;6.998;2023-02-28T15:29:53;3.83;;;2.50;;
35084;SDS011;21267;51.032;6.998;2023-02-28T15:55:36;2.63;;;2.25;;
35084;SDS011;21267;51.032;6.998;2023-02-28T19:07:46;7.57;;;4.57;;
35084;SDS011;21267;51.032;6.998;2023-02-28T19:10:55;7.90;;;4.13;;
35084;SDS011;21267;51.032;6.998;2023-02-28T19:13:47;5.35;;;3.92;;
35084;SDS011;21267;51.032;6.998;2023-02-28T19:16:36;8.00;;;4.47;;
35084;SDS011;21267;51.032;6.998;2023-02-28T19:19:56;5.18;;;3.92;;
35084;SDS011;21267;51.032;6.998;2023-02-28T19:30:04;8.73;;;3.95;;
35084;SDS011;21267;51.032;6.998;2023-02-28T19:33:18;7.00;;;3.70;;
35084;SDS011;21267;51.032;6.998;2023-02-28T19:35:50;5.10;;;3.60;;
35084;SDS011;21267;51.032;6.998;2023-02-28T19:38:59;5.70;;;4.20;;
35084;SDS011;21267;51.032;6.998;2023-02-28T19:42:26;7.20;;;5.32;;
35084;SDS011;21267;51.032;6.998;2023-02-28T19:44:58;7.38;;;5.70;;
35084;SDS011;21267;51.032;6.998;2023-02-28T19:48:27;7.90;;;6.28;;
35084;SDS011;21267;51.032;6.998;2023-02-28T19:51:05;9.00;;;6.00;;
35084;SDS011;21267;51.032;6.998;2023-02-28T19:53:40;10.50;;;6.28;;
35084;SDS011;21267;51.032;6.998;2023-02-28T19:56:10;7.97;;;5.53;;
35084;SDS011;21267;51.032;6.998;2023-02-28T19:58:50;8.52;;;5.15;;
35084;SDS011;21267;51.032;6.998;2023-02-28T20:01:38;11.48;;;4.97;;
35084;SDS011;21267;51.032;6.998;2023-02-28T20:04:25;6.00;;;4.35;;
35084;SDS011;21267;51.032;6.998;2023-02-28T20:07:24;8.23;;;5.15;;
35084;SDS011;21267;51.032;6.998;2023-02-28T20:10:20;7.85;;;5.57;;
35084;SDS011;21267;51.032;6.998;2023-02-28T20:12:47;8.47;;;6.07;;
35084;SDS011;21267;51.032;6.998;2023-02-28T20:15:15;8.15;;;5.38;;
35084;SDS011;21267;51.032;6.998;2023-02-28T20:17:54;10.35;;;6.22;;
35084;SDS011;21267;51.032;6.998;2023-02-28T20:20:30;9.00;;;5.60;;
35084;SDS011;21267;51.032;6.998;2023-02-28T20:44:18;9.10;;;6.32;;
